sensor_id;sensor_type;location;lat;lon;timestamp;pressure;altitude;pressure_sealevel;temperature;humidity
62420;BME280;48460;51.616;5.426;2023-05-10T02:31:34;100752.41;;;11.90;100.00
62420;BME280;48460;51.616;5.426;2023-05-10T02:37:43;100737.00;;;11.82;100.00
62420;BME280;48460;51.616;5.426;2023-05-10T02:40:33;100735.66;;;11.75;100.00
62420;BME280;48460;51.616;5.426;2023-05-10T02:46:46;100739.16;;;11.76;100.00
62420;BME280;48460;51.616;5.426;2023-05-10T02:55:41;100743.94;;;11.69;100.00
62420;BME280;48460;51.616;5.426;2023-05-10T02:58:38;100736.94;;;11.68;100.00
62420;BME280;48460;51.616;5.426;2023-05-10T03:01:26;100745.63;;;11.70;100.00
62420;BME280;48460;51.616;5.426;2023-05-10T03:04:07;100746.22;;;11.75;100.00
62420;BME280;48460;51.616;5.426;2023-05-10T03:13:25;100752.81;;;11.82;100.00
62420;BME280;48460;51.616;5.426;2023-05-10T03:16:25;100758.25;;;11.79;100.00
62420;BME280;48460;51.616;5.426;2023-05-10T03:36:12;100754.13;;;11.75;100.00
62420;BME280;48460;51.616;5.426;2023-05-10T03:46:27;100773.88;;;11.82;100.00
62420;BME280;48460;51.616;5.426;2023-05-10T03:49:33;100784.09;;;11.89;100.00
62420;BME280;48460;51.616;5.426;2023-05-10T03:52:30;100779.25;;;11.81;100.00
62420;BME280;48460;51.616;5.426;2023-05-10T03:58:58;100767.94;;;11.79;100.00
62420;BME280;48460;51.616;5.426;2023-05-10T04:07:45;100782.56;;;11.84;100.00
62420;BME280;48460;51.616;5.426;2023-05-10T04:14:13;100781.19;;;11.77;100.00
62420;BME280;48460;51.616;5.426;2023-05-10T04:17:06;100787.34;;;11.78;100.00
62420;BME280;48460;51.616;5.426;2023-05-10T04:26:33;100783.28;;;11.72;100.00
62420;BME280;48460;51.616;5.426;2023-05-10T04:29:32;100786.81;;;11.71;100.00
62420;BME280;48460;51.616;5.426;2023-05-10T04:32:29;100783.63;;;11.66;100.00
62420;BME280;48460;51.616;5.426;2023-05-10T04:38:21;100795.44;;;11.59;100.00
62420;BME280;48460;51.616;5.426;2023-05-10T04:41:10;100790.28;;;11.57;100.00
62420;BME280;48460;51.616;5.426;2023-05-10T04:44:03;100789.38;;;11.57;100.00
62420;BME280;48460;51.616;5.426;2023-05-10T04:46:52;100799.84;;;11.58;100.00
62420;BME280;48460;51.616;5.426;2023-05-10T04:49:50;100800.88;;;11.56;100.00
62420;BME280;48460;51.616;5.426;2023-05-10T04:52:37;100807.34;;;11.50;100.00
62420;BME280;48460;51.616;5.426;2023-05-10T04:55:25;100809.91;;;11.52;100.00
62420;BME280;48460;51.616;5.426;2023-05-10T04:58:00;100795.34;;;11.45;100.00
62420;BME280;48460;51.616;5.426;2023-05-10T05:00:35;100803.44;;;11.41;100.00
62420;BME280;48460;51.616;5.426;2023-05-10T05:03:12;100813.91;;;11.43;100.00
62420;BME280;48460;51.616;5.426;2023-05-10T05:05:38;100810.97;;;11.48;100.00
62420;BME280;48460;51.616;5.426;2023-05-10T05:08:21;100813.78;;;11.45;100.00
62420;BME280;48460;51.616;5.426;2023-05-10T05:10:58;100810.97;;;11.48;100.00
62420;BME280;48460;51.616;5.426;2023-05-10T05:13:39;100821.16;;;11.54;100.00
62420;BME280;48460;51.616;5.426;2023-05-10T05:16:08;100814.03;;;11.56;100.00
62420;BME280;48460;51.616;5.426;2023-05-10T05:18:37;100821.88;;;11.57;100.00
62420;BME280;48460;51.616;5.426;2023-05-10T05:21:02;100809.91;;;11.52;100.00
62420;BME280;48460;51.616;5.426;2023-05-10T05:23:28;100815.72;;;11.57;100.00
62420;BME280;48460;51.616;5.426;2023-05-10T05:25:57;100817.63;;;11.55;100.00
62420;BME280;48460;51.616;5.426;2023-05-10T05:28:22;100814.81;;;11.58;100.00
62420;BME280;48460;51.616;5.426;2023-05-10T05:30:50;100826.97;;;11.60;100.00
62420;BME280;48460;51.616;5.426;2023-05-10T05:33:18;100824.41;;;11.59;100.00
62420;BME280;48460;51.616;5.426;2023-05-10T05:35:46;100826.09;;;11.60;100.00
62420;BME280;48460;51.616;5.426;2023-05-10T05:38:20;100824.91;;;11.66;100.00
62420;BME280;48460;51.616;5.426;2023-05-10T05:40:48;100828.81;;;11.74;100.00
62420;BME280;48460;51.616;5.426;2023-05-10T05:43:14;100832.28;;;11.75;100.00
62420;BME280;48460;51.616;5.426;2023-05-10T05:45:40;100834.78;;;11.78;100.00
62420;BME280;48460;51.616;5.426;2023-05-10T05:48:13;100821.19;;;11.70;100.00
62420;BME280;48460;51.616;5.426;2023-05-10T05:50:51;100827.00;;;11.75;100.00
62420;BME280;48460;51.616;5.426;2023-05-10T05:53:19;100824.97;;;11.80;100.00
62420;BME280;48460;51.616;5.426;2023-05-10T05:56:00;100833.16;;;11.91;100.00
62420;BME280;48460;51.616;5.426;2023-05-10T05:58:41;100840.94;;;11.93;100.00
62420;BME280;48460;51.616;5.426;2023-05-10T06:01:15;100828.47;;;11.96;100.00
62420;BME280;48460;51.616;5.426;2023-05-10T06:06:45;100846.03;;;12.12;100.00
62420;BME280;48460;51.616;5.426;2023-05-10T06:09:42;100847.72;;;12.13;100.00
62420;BME280;48460;51.616;5.426;2023-05-10T06:12:38;100841.78;;;12.09;100.00
62420;BME280;48460;51.616;5.426;2023-05-10T06:15:32;100846.09;;;12.10;100.00
62420;BME280;48460;51.616;5.426;2023-05-10T06:18:00;100854.78;;;12.12;100.00
62420;BME280;48460;51.616;5.426;2023-05-10T06:20:28;100857.16;;;12.17;100.00
62420;BME280;48460;51.616;5.426;2023-05-10T06:22:59;100859.09;;;12.13;100.00
62420;BME280;48460;51.616;5.426;2023-05-10T06:25:37;100857.91;;;12.19;100.00
62420;BME280;48460;51.616;5.426;2023-05-10T06:28:13;100864.78;;;12.21;100.00
62420;BME280;48460;51.616;5.426;2023-05-10T06:30:47;100863.56;;;12.27;100.00
62420;BME280;48460;51.616;5.426;2023-05-10T06:36:09;100863.63;;;12.41;100.00
62420;BME280;48460;51.616;5.426;2023-05-10T06:38:44;100861.91;;;12.40;100.00
62420;BME280;48460;51.616;5.426;2023-05-10T06:41:31;100871.25;;;12.46;100.00
62420;BME280;48460;51.616;5.426;2023-05-10T06:44:00;100876.72;;;12.57;100.00
62420;BME280;48460;51.616;5.426;2023-05-10T06:46:46;100876.47;;;12.62;100.00
62420;BME280;48460;51.616;5.426;2023-05-10T06:49:12;100870.25;;;12.77;100.00
62420;BME280;48460;51.616;5.426;2023-05-10T06:51:47;100889.41;;;12.95;100.00
62420;BME280;48460;51.616;5.426;2023-05-10T06:54:12;100886.78;;;12.95;100.00
62420;BME280;48460;51.616;5.426;2023-05-10T06:56:42;100881.50;;;12.95;100.00
62420;BME280;48460;51.616;5.426;2023-05-10T06:59:11;100878.28;;;12.90;100.00
62420;BME280;48460;51.616;5.426;2023-05-10T07:01:52;100895.63;;;12.94;100.00
62420;BME280;48460;51.616;5.426;2023-05-10T07:04:34;100897.97;;;12.84;100.00
62420;BME280;48460;51.616;5.426;2023-05-10T07:07:13;100890.91;;;12.70;100.00
62420;BME280;48460;51.616;5.426;2023-05-10T07:09:55;100896.81;;;12.60;100.00
62420;BME280;48460;51.616;5.426;2023-05-10T07:12:25;100902.28;;;12.57;100.00
62420;BME280;48460;51.616;5.426;2023-05-10T07:14:53;100916.06;;;12.46;100.00
62420;BME280;48460;51.616;5.426;2023-05-10T07:17:22;100903.19;;;12.41;100.00
62420;BME280;48460;51.616;5.426;2023-05-10T07:19:50;100905.81;;;12.41;100.00
62420;BME280;48460;51.616;5.426;2023-05-10T07:22:24;100910.81;;;12.46;100.00
62420;BME280;48460;51.616;5.426;2023-05-10T07:24:52;100917.97;;;12.44;100.00
62420;BME280;48460;51.616;5.426;2023-05-10T07:27:18;100920.09;;;12.37;100.00
62420;BME280;48460;51.616;5.426;2023-05-10T07:29:50;100931.16;;;12.44;100.00
62420;BME280;48460;51.616;5.426;2023-05-10T07:32:16;100917.09;;;12.29;100.00
62420;BME280;48460;51.616;5.426;2023-05-10T07:34:42;100923.97;;;12.31;100.00
62420;BME280;48460;51.616;5.426;2023-05-10T07:37:07;100922.34;;;12.29;100.00
62420;BME280;48460;51.616;5.426;2023-05-10T07:39:51;100930.56;;;12.39;100.00
62420;BME280;48460;51.616;5.426;2023-05-10T07:42:20;100919.25;;;12.37;100.00
62420;BME280;48460;51.616;5.426;2023-05-10T07:47:34;100929.56;;;12.41;100.00
62420;BME280;48460;51.616;5.426;2023-05-10T07:50:00;100934.19;;;12.52;100.00
62420;BME280;48460;51.616;5.426;2023-05-10T07:52:28;100938.84;;;12.63;100.00
62420;BME280;48460;51.616;5.426;2023-05-10T07:55:22;100936.88;;;12.66;100.00
62420;BME280;48460;51.616;5.426;2023-05-10T07:57:57;100932.06;;;12.59;100.00
62420;BME280;48460;51.616;5.426;2023-05-10T08:00:28;100949.66;;;12.58;100.00
62420;BME280;48460;51.616;5.426;2023-05-10T08:03:07;100942.44;;;12.62;100.00
62420;BME280;48460;51.616;5.426;2023-05-10T08:05:50;100949.41;;;12.63;100.00
62420;BME280;48460;51.616;5.426;2023-05-10T08:08:23;100952.31;;;12.72;100.00
62420;BME280;48460;51.616;5.426;2023-05-10T08:10:49;100949.97;;;12.68;100.00
62420;BME280;48460;51.616;5.426;2023-05-10T08:13:29;100955.06;;;12.71;100.00
62420;BME280;48460;51.616;5.426;2023-05-10T08:16:08;100963.47;;;12.77;100.00
62420;BME280;48460;51.616;5.426;2023-05-10T08:18:42;100968.75;;;12.77;100.00
62420;BME280;48460;51.616;5.426;2023-05-10T08:21:11;100962.69;;;12.75;100.00
62420;BME280;48460;51.616;5.426;2023-05-10T08:23:48;100974.78;;;12.80;100.00
62420;BME280;48460;51.616;5.426;2023-05-10T08:26:25;100977.47;;;12.94;100.00
62420;BME280;48460;51.616;5.426;2023-05-10T08:28:55;100967.94;;;13.06;100.00
62420;BME280;48460;51.616;5.426;2023-05-10T08:31:23;100973.16;;;13.21;100.00
62420;BME280;48460;51.616;5.426;2023-05-10T08:34:33;100967.34;;;13.31;100.00
62420;BME280;48460;51.616;5.426;2023-05-10T08:37:16;100964.97;;;13.40;100.00
62420;BME280;48460;51.616;5.426;2023-05-10T08:39:49;100983.19;;;13.59;100.00
62420;BME280;48460;51.616;5.426;2023-05-10T08:42:25;100989.66;;;13.68;100.00
62420;BME280;48460;51.616;5.426;2023-05-10T08:44:59;100976.97;;;13.60;100.00
62420;BME280;48460;51.616;5.426;2023-05-10T08:47:25;100991.66;;;13.64;100.00
62420;BME280;48460;51.616;5.426;2023-05-10T08:49:51;100987.16;;;13.66;100.00
62420;BME280;48460;51.616;5.426;2023-05-10T08:52:24;100987.31;;;13.78;100.00
62420;BME280;48460;51.616;5.426;2023-05-10T08:54:59;100995.72;;;13.70;100.00
62420;BME280;48460;51.616;5.426;2023-05-10T08:57:46;100994.41;;;13.63;100.00
62420;BME280;48460;51.616;5.426;2023-05-10T09:01:07;100986.19;;;13.53;100.00
62420;BME280;48460;51.616;5.426;2023-05-10T09:03:43;100982.25;;;13.46;100.00
62420;BME280;48460;51.616;5.426;2023-05-10T09:06:17;100987.72;;;13.43;100.00
62420;BME280;48460;51.616;5.426;2023-05-10T09:08:52;100990.38;;;13.43;100.00
62420;BME280;48460;51.616;5.426;2023-05-10T09:11:40;101001.69;;;13.59;100.00
62420;BME280;48460;51.616;5.426;2023-05-10T09:14:24;101002.63;;;13.73;100.00
62420;BME280;48460;51.616;5.426;2023-05-10T09:16:50;101001.19;;;13.81;100.00
62420;BME280;48460;51.616;5.426;2023-05-10T09:19:19;101007.97;;;13.71;100.00
62420;BME280;48460;51.616;5.426;2023-05-10T09:21:55;101010.34;;;13.76;100.00
62420;BME280;48460;51.616;5.426;2023-05-10T09:24:26;101009.19;;;13.80;100.00
62420;BME280;48460;51.616;5.426;2023-05-10T09:27:14;101010.53;;;13.73;100.00
62420;BME280;48460;51.616;5.426;2023-05-10T09:30:04;101015.06;;;13.85;100.00
62420;BME280;48460;51.616;5.426;2023-05-10T09:32:53;101012.41;;;13.85;100.00
62420;BME280;48460;51.616;5.426;2023-05-10T09:35:32;101013.75;;;13.92;100.00
62420;BME280;48460;51.616;5.426;2023-05-10T09:38:17;101016.44;;;14.05;100.00
62420;BME280;48460;51.616;5.426;2023-05-10T09:40:56;101010.59;;;14.00;100.00
62420;BME280;48460;51.616;5.426;2023-05-10T09:43:23;101019.97;;;13.91;100.00
62420;BME280;48460;51.616;5.426;2023-05-10T09:45:58;101024.59;;;13.87;100.00
62420;BME280;48460;51.616;5.426;2023-05-10T09:48:51;101032.13;;;13.94;100.00
62420;BME280;48460;51.616;5.426;2023-05-10T09:51:41;101024.13;;;13.95;100.00
62420;BME280;48460;51.616;5.426;2023-05-10T09:54:18;101018.78;;;14.09;100.00
62420;BME280;48460;51.616;5.426;2023-05-10T09:56:54;101023.56;;;14.31;100.00
62420;BME280;48460;51.616;5.426;2023-05-10T09:59:22;101020.38;;;14.53;100.00
62420;BME280;48460;51.616;5.426;2023-05-10T10:02:02;101020.19;;;14.96;100.00
62420;BME280;48460;51.616;5.426;2023-05-10T10:04:38;101031.84;;;15.19;100.00
62420;BME280;48460;51.616;5.426;2023-05-10T10:07:42;101016.69;;;15.34;100.00
62420;BME280;48460;51.616;5.426;2023-05-10T10:10:36;101021.47;;;15.55;100.00
62420;BME280;48460;51.616;5.426;2023-05-10T10:13:19;101019.88;;;15.65;100.00
62420;BME280;48460;51.616;5.426;2023-05-10T10:15:49;101019.66;;;15.81;100.00
62420;BME280;48460;51.616;5.426;2023-05-10T10:18:36;101023.78;;;15.98;100.00
62420;BME280;48460;51.616;5.426;2023-05-10T10:21:24;101016.31;;;16.03;100.00
62420;BME280;48460;51.616;5.426;2023-05-10T10:23:51;101021.47;;;15.80;100.00
62420;BME280;48460;51.616;5.426;2023-05-10T10:26:19;101032.69;;;15.58;100.00
62420;BME280;48460;51.616;5.426;2023-05-10T10:32:21;101042.03;;;15.51;100.00
62420;BME280;48460;51.616;5.426;2023-05-10T10:34:54;101043.94;;;15.36;100.00
62420;BME280;48460;51.616;5.426;2023-05-10T10:37:42;101045.75;;;15.23;100.00
62420;BME280;48460;51.616;5.426;2023-05-10T10:40:32;101029.63;;;15.13;100.00
62420;BME280;48460;51.616;5.426;2023-05-10T10:50:13;101042.81;;;15.53;100.00
62420;BME280;48460;51.616;5.426;2023-05-10T10:52:50;101040.66;;;15.45;100.00
62420;BME280;48460;51.616;5.426;2023-05-10T10:55:19;101042.81;;;15.53;100.00
62420;BME280;48460;51.616;5.426;2023-05-10T11:04:50;101044.03;;;15.99;100.00
62420;BME280;48460;51.616;5.426;2023-05-10T11:08:08;101042.03;;;16.26;100.00
62420;BME280;48460;51.616;5.426;2023-05-10T11:17:45;101049.38;;;16.95;100.00
62420;BME280;48460;51.616;5.426;2023-05-10T11:20:40;101049.00;;;16.88;100.00
62420;BME280;48460;51.616;5.426;2023-05-10T11:23:14;101033.44;;;16.71;100.00
62420;BME280;48460;51.616;5.426;2023-05-10T11:26:03;101039.44;;;16.61;100.00
62420;BME280;48460;51.616;5.426;2023-05-10T11:28:48;101041.19;;;16.50;100.00
62420;BME280;48460;51.616;5.426;2023-05-10T11:31:34;101037.81;;;16.48;100.00
62420;BME280;48460;51.616;5.426;2023-05-10T11:34:04;101037.06;;;16.70;100.00
62420;BME280;48460;51.616;5.426;2023-05-10T11:36:35;101036.16;;;17.06;100.00
62420;BME280;48460;51.616;5.426;2023-05-10T11:39:11;101044.47;;;17.82;100.00
62420;BME280;48460;51.616;5.426;2023-05-10T11:41:37;101034.47;;;18.29;100.00
62420;BME280;48460;51.616;5.426;2023-05-10T11:44:08;101027.19;;;18.42;100.00
62420;BME280;48460;51.616;5.426;2023-05-10T11:46:44;101042.34;;;18.30;100.00
62420;BME280;48460;51.616;5.426;2023-05-10T11:49:12;101038.78;;;18.09;100.00
62420;BME280;48460;51.616;5.426;2023-05-10T11:51:39;101048.69;;;17.84;100.00
62420;BME280;48460;51.616;5.426;2023-05-10T11:54:27;101042.75;;;17.69;100.00
62420;BME280;48460;51.616;5.426;2023-05-10T11:56:53;101042.38;;;17.51;100.00
62420;BME280;48460;51.616;5.426;2023-05-10T11:59:24;101038.88;;;17.28;100.00
62420;BME280;48460;51.616;5.426;2023-05-10T12:01:50;101038.59;;;17.20;100.00
62420;BME280;48460;51.616;5.426;2023-05-10T12:04:25;101046.78;;;17.06;100.00
62420;BME280;48460;51.616;5.426;2023-05-10T12:06:51;101052.03;;;16.71;100.00
62420;BME280;48460;51.616;5.426;2023-05-10T12:09:17;101051.13;;;16.35;100.00
62420;BME280;48460;51.616;5.426;2023-05-10T12:11:42;101055.25;;;16.02;100.00
62420;BME280;48460;51.616;5.426;2023-05-10T12:14:08;101063.78;;;15.82;100.00
62420;BME280;48460;51.616;5.426;2023-05-10T12:16:45;101061.03;;;15.58;100.00
62420;BME280;48460;51.616;5.426;2023-05-10T12:19:19;101060.78;;;15.22;100.00
62420;BME280;48460;51.616;5.426;2023-05-10T12:22:27;101063.00;;;15.16;100.00
62420;BME280;48460;51.616;5.426;2023-05-10T12:25:11;101050.06;;;14.98;100.00
62420;BME280;48460;51.616;5.426;2023-05-10T12:27:40;101066.75;;;14.86;100.00
62420;BME280;48460;51.616;5.426;2023-05-10T12:30:09;101069.19;;;14.76;100.00
62420;BME280;48460;51.616;5.426;2023-05-10T12:32:39;101059.41;;;14.64;100.00
62420;BME280;48460;51.616;5.426;2023-05-10T12:35:08;101067.94;;;14.55;100.00
62420;BME280;48460;51.616;5.426;2023-05-10T12:37:36;101075.97;;;14.53;100.00
62420;BME280;48460;51.616;5.426;2023-05-10T12:40:08;101069.56;;;14.43;100.00
62420;BME280;48460;51.616;5.426;2023-05-10T12:42:39;101088.28;;;14.40;100.00
62420;BME280;48460;51.616;5.426;2023-05-10T12:45:17;101089.47;;;14.49;100.00
62420;BME280;48460;51.616;5.426;2023-05-10T12:47:45;101085.44;;;14.43;100.00
62420;BME280;48460;51.616;5.426;2023-05-10T12:50:13;101092.16;;;14.34;100.00
62420;BME280;48460;51.616;5.426;2023-05-10T12:52:39;101100.38;;;14.30;100.00
62420;BME280;48460;51.616;5.426;2023-05-10T12:55:08;101104.25;;;14.24;100.00
62420;BME280;48460;51.616;5.426;2023-05-10T12:57:45;101117.59;;;14.23;100.00
62420;BME280;48460;51.616;5.426;2023-05-10T13:00:13;101125.22;;;14.27;100.00
62420;BME280;48460;51.616;5.426;2023-05-10T13:02:39;101128.75;;;14.28;100.00
62420;BME280;48460;51.616;5.426;2023-05-10T13:05:10;101120.81;;;14.28;100.00
62420;BME280;48460;51.616;5.426;2023-05-10T13:07:47;101122.78;;;13.81;100.00
62420;BME280;48460;51.616;5.426;2023-05-10T13:10:16;101125.44;;;13.81;100.00
62420;BME280;48460;51.616;5.426;2023-05-10T13:12:41;101123.06;;;13.77;100.00
62420;BME280;48460;51.616;5.426;2023-05-10T13:15:07;101124.00;;;13.76;100.00
62420;BME280;48460;51.616;5.426;2023-05-10T13:17:35;101119.75;;;13.73;100.00
62420;BME280;48460;51.616;5.426;2023-05-10T13:20:04;101107.88;;;13.80;100.00
62420;BME280;48460;51.616;5.426;2023-05-10T13:22:31;101101.66;;;13.96;100.00
62420;BME280;48460;51.616;5.426;2023-05-10T13:25:05;101112.22;;;14.10;100.00
62420;BME280;48460;51.616;5.426;2023-05-10T13:27:32;101113.72;;;14.28;100.00
62420;BME280;48460;51.616;5.426;2023-05-10T13:30:01;101110.47;;;14.38;100.00
62420;BME280;48460;51.616;5.426;2023-05-10T13:32:52;101115.38;;;14.58;100.00
62420;BME280;48460;51.616;5.426;2023-05-10T13:35:23;101108.47;;;14.55;100.00
62420;BME280;48460;51.616;5.426;2023-05-10T13:38:21;101121.31;;;14.62;100.00
62420;BME280;48460;51.616;5.426;2023-05-10T13:40:58;101124.34;;;14.41;100.00
62420;BME280;48460;51.616;5.426;2023-05-10T13:43:27;101131.81;;;14.49;100.00
62420;BME280;48460;51.616;5.426;2023-05-10T13:45:52;101130.88;;;14.35;100.00
62420;BME280;48460;51.616;5.426;2023-05-10T13:48:18;101130.69;;;14.39;100.00
62420;BME280;48460;51.616;5.426;2023-05-10T13:50:43;101133.72;;;14.32;100.00
62420;BME280;48460;51.616;5.426;2023-05-10T13:53:09;101131.84;;;14.34;100.00
62420;BME280;48460;51.616;5.426;2023-05-10T13:55:34;101132.75;;;14.33;100.00
62420;BME280;48460;51.616;5.426;2023-05-10T13:58:00;101128.94;;;14.25;100.00
62420;BME280;48460;51.616;5.426;2023-05-10T14:00:26;101135.72;;;14.29;100.00
62420;BME280;48460;51.616;5.426;2023-05-10T14:02:54;101126.63;;;14.19;100.00
62420;BME280;48460;51.616;5.426;2023-05-10T14:05:22;101137.03;;;14.22;100.00
62420;BME280;48460;51.616;5.426;2023-05-10T14:07:52;101136.75;;;14.12;100.00
62420;BME280;48460;51.616;5.426;2023-05-10T14:10:22;101129.78;;;14.11;100.00
62420;BME280;48460;51.616;5.426;2023-05-10T14:13:08;101136.56;;;14.15;100.00
62420;BME280;48460;51.616;5.426;2023-05-10T14:15:37;101126.00;;;14.01;100.00
62420;BME280;48460;51.616;5.426;2023-05-10T14:18:15;101125.63;;;14.07;100.00
62420;BME280;48460;51.616;5.426;2023-05-10T14:20:45;101122.13;;;14.06;100.00
62420;BME280;48460;51.616;5.426;2023-05-10T14:23:13;101124.13;;;14.03;100.00
62420;BME280;48460;51.616;5.426;2023-05-10T14:25:45;101115.53;;;13.99;100.00
62420;BME280;48460;51.616;5.426;2023-05-10T14:28:19;101126.28;;;13.96;100.00
62420;BME280;48460;51.616;5.426;2023-05-10T14:30:48;101118.63;;;13.91;100.00
62420;BME280;48460;51.616;5.426;2023-05-10T14:33:16;101119.97;;;13.84;100.00
62420;BME280;48460;51.616;5.426;2023-05-10T14:35:53;101131.00;;;13.91;100.00
62420;BME280;48460;51.616;5.426;2023-05-10T14:38:21;101124.09;;;13.88;100.00
62420;BME280;48460;51.616;5.426;2023-05-10T14:40:51;101124.69;;;13.94;100.00
62420;BME280;48460;51.616;5.426;2023-05-10T14:43:17;101119.41;;;13.94;100.00
62420;BME280;48460;51.616;5.426;2023-05-10T14:45:54;101130.94;;;13.93;100.00
62420;BME280;48460;51.616;5.426;2023-05-10T14:48:23;101133.06;;;13.86;100.00
62420;BME280;48460;51.616;5.426;2023-05-10T14:50:51;101132.22;;;14.00;100.00
62420;BME280;48460;51.616;5.426;2023-05-10T14:53:20;101133.00;;;14.02;100.00
62420;BME280;48460;51.616;5.426;2023-05-10T14:55:45;101138.28;;;14.02;100.00
62420;BME280;48460;51.616;5.426;2023-05-10T14:58:14;101137.44;;;14.01;100.00
62420;BME280;48460;51.616;5.426;2023-05-10T15:00:40;101143.47;;;14.03;100.00
62420;BME280;48460;51.616;5.426;2023-05-10T15:03:05;101142.63;;;14.03;100.00
62420;BME280;48460;51.616;5.426;2023-05-10T15:05:38;101134.59;;;14.04;100.00
62420;BME280;48460;51.616;5.426;2023-05-10T15:08:06;101134.50;;;14.06;100.00
62420;BME280;48460;51.616;5.426;2023-05-10T15:10:39;101133.66;;;14.05;100.00
62420;BME280;48460;51.616;5.426;2023-05-10T15:13:19;101137.13;;;14.06;100.00
62420;BME280;48460;51.616;5.426;2023-05-10T15:15:50;101143.97;;;13.96;100.00
62420;BME280;48460;51.616;5.426;2023-05-10T15:18:16;101148.84;;;13.87;100.00
62420;BME280;48460;51.616;5.426;2023-05-10T15:20:44;101146.88;;;13.91;100.00
62420;BME280;48460;51.616;5.426;2023-05-10T15:23:09;101144.69;;;13.98;100.00
62420;BME280;48460;51.616;5.426;2023-05-10T15:25:36;101139.13;;;14.02;100.00
62420;BME280;48460;51.616;5.426;2023-05-10T15:28:02;101144.63;;;13.99;100.00
62420;BME280;48460;51.616;5.426;2023-05-10T15:30:30;101146.88;;;14.05;100.00
62420;BME280;48460;51.616;5.426;2023-05-10T15:33:05;101143.19;;;14.08;100.00
62420;BME280;48460;51.616;5.426;2023-05-10T15:35:30;101141.97;;;14.13;100.00
62420;BME280;48460;51.616;5.426;2023-05-10T15:38:05;101144.41;;;14.17;100.00
62420;BME280;48460;51.616;5.426;2023-05-10T15:40:34;101148.09;;;14.14;100.00
62420;BME280;48460;51.616;5.426;2023-05-10T15:43:04;101143.47;;;14.18;100.00
62420;BME280;48460;51.616;5.426;2023-05-10T15:48:23;101152.91;;;14.22;100.00
62420;BME280;48460;51.616;5.426;2023-05-10T15:51:07;101156.63;;;14.19;100.00
62420;BME280;48460;51.616;5.426;2023-05-10T15:56:55;101161.22;;;14.16;100.00
62420;BME280;48460;51.616;5.426;2023-05-10T15:59:38;101157.53;;;14.18;100.00
62420;BME280;48460;51.616;5.426;2023-05-10T16:02:06;101165.28;;;14.21;100.00
62420;BME280;48460;51.616;5.426;2023-05-10T16:04:33;101166.03;;;14.23;100.00
62420;BME280;48460;51.616;5.426;2023-05-10T16:07:09;101166.69;;;14.12;100.00
62420;BME280;48460;51.616;5.426;2023-05-10T16:10:03;101171.25;;;13.96;100.00
62420;BME280;48460;51.616;5.426;2023-05-10T16:12:31;101174.91;;;13.79;100.00
62420;BME280;48460;51.616;5.426;2023-05-10T16:14:57;101170.34;;;13.67;100.00
62420;BME280;48460;51.616;5.426;2023-05-10T16:17:22;101164.66;;;13.59;100.00
62420;BME280;48460;51.616;5.426;2023-05-10T16:19:47;101179.09;;;13.53;100.00
62420;BME280;48460;51.616;5.426;2023-05-10T16:22:17;101176.72;;;13.49;100.00
62420;BME280;48460;51.616;5.426;2023-05-10T16:24:43;101181.59;;;13.40;100.00
62420;BME280;48460;51.616;5.426;2023-05-10T16:27:08;101181.59;;;13.40;100.00
62420;BME280;48460;51.616;5.426;2023-05-10T16:29:36;101175.53;;;13.38;100.00
62420;BME280;48460;51.616;5.426;2023-05-10T16:32:07;101182.38;;;13.42;100.00
62420;BME280;48460;51.616;5.426;2023-05-10T16:34:55;101188.50;;;13.43;100.00
62420;BME280;48460;51.616;5.426;2023-05-10T16:43:46;101190.34;;;13.27;100.00
62420;BME280;48460;51.616;5.426;2023-05-10T16:46:22;101195.34;;;13.15;100.00
62420;BME280;48460;51.616;5.426;2023-05-10T16:49:00;101193.25;;;13.06;100.00
62420;BME280;48460;51.616;5.426;2023-05-10T16:54:56;101202.78;;;12.93;100.00
62420;BME280;48460;51.616;5.426;2023-05-10T16:57:29;101201.94;;;12.92;100.00
62420;BME280;48460;51.616;5.426;2023-05-10T17:00:13;101202.00;;;12.91;100.00
62420;BME280;48460;51.616;5.426;2023-05-10T17:02:41;101208.91;;;12.93;100.00
62420;BME280;48460;51.616;5.426;2023-05-10T17:15:04;101209.69;;;12.80;100.00
62420;BME280;48460;51.616;5.426;2023-05-10T17:24:47;101219.47;;;12.93;100.00
62420;BME280;48460;51.616;5.426;2023-05-10T17:27:36;101225.28;;;13.00;100.00
62420;BME280;48460;51.616;5.426;2023-05-10T17:30:16;101218.78;;;13.06;100.00
62420;BME280;48460;51.616;5.426;2023-05-10T17:32:48;101220.16;;;13.13;100.00
62420;BME280;48460;51.616;5.426;2023-05-10T17:48:58;101228.25;;;13.26;100.00
62420;BME280;48460;51.616;5.426;2023-05-10T19:03:36;101244.41;;;12.88;100.00
62420;BME280;48460;51.616;5.426;2023-05-10T20:15:37;101293.56;;;12.24;100.00
62420;BME280;48460;51.616;5.426;2023-05-10T20:18:56;101297.88;;;12.25;100.00
62420;BME280;48460;51.616;5.426;2023-05-10T20:50:47;101297.63;;;11.96;100.00
62420;BME280;48460;51.616;5.426;2023-05-10T23:20:24;101325.81;;;11.94;100.00
